Time;durP1;ratioP1;P1;durP2;ratioP2;P2;SDS_P1;SDS_P2;PMS_P1;PMS_P2;Temp;Humidity;BMP_temperature;BMP_pressure;BME280_temperature;BME280_humidity;BME280_pressure;Samples;Min_cycle;Max_cycle;Signal;HPM_P1;HPM_P2
2023/07/08 00:01:18;;;;;;;5.03;2.95;;;19.40;99.90;;;-144.05;47.68;56838.22;5035425;28;20115;-82
2023/07/08 00:03:46;;;;;;;4.10;3.03;;;19.40;99.90;;;-144.05;47.82;56840.34;5053608;28;20104;-81
2023/07/08 00:06:27;;;;;;;4.82;2.60;;;19.30;99.90;;;-144.05;48.08;56850.97;5053759;28;20033;-81
2023/07/08 00:08:53;;;;;;;6.55;2.75;;;19.30;99.90;;;-144.05;48.02;56823.34;5053724;28;20025;-80
2023/07/08 00:11:19;;;;;;;8.43;2.90;;;19.30;99.90;;;-144.05;47.91;56848.84;5053735;28;20025;-80
2023/07/08 00:13:45;;;;;;;6.43;2.88;;;19.30;99.90;;;-144.05;47.98;56836.09;5053615;28;20039;-83
2023/07/08 00:16:19;;;;;;;5.38;2.67;;;19.30;99.90;;;-144.05;48.04;56836.09;5039945;28;20119;-83
2023/07/08 00:18:46;;;;;;;5.22;2.88;;;19.30;99.90;;;-144.05;47.91;56833.97;5042901;28;20055;-83
2023/07/08 00:21:16;;;;;;;5.43;2.60;;;19.30;99.90;;;-144.05;48.10;56816.97;5053219;28;20021;-83
2023/07/08 00:23:48;;;;;;;9.45;3.58;;;19.30;99.90;;;-144.05;48.10;56827.59;5053376;28;20029;-82
2023/07/08 00:26:26;;;;;;;7.72;2.63;;;19.30;99.90;;;-144.05;47.88;56827.59;5027447;28;20034;-82
2023/07/08 00:28:52;;;;;;;8.68;2.60;;;19.30;99.90;;;-144.05;47.52;56823.34;5032887;28;20053;-81
2023/07/08 00:31:23;;;;;;;6.35;2.47;;;19.30;99.90;;;-144.05;47.50;56821.22;5015379;28;20025;-82
2023/07/08 00:33:50;;;;;;;4.82;2.72;;;19.30;99.90;;;-144.05;47.72;56840.34;5015331;28;20358;-84
2023/07/08 00:36:17;;;;;;;3.95;2.55;;;19.30;99.90;;;-144.05;47.51;56836.09;5031584;28;20056;-84
2023/07/08 00:38:45;;;;;;;4.35;2.70;;;19.30;99.90;;;-144.05;47.79;56829.72;5032657;28;20377;-83
2023/07/08 00:41:41;;;;;;;7.20;2.78;;;19.30;99.90;;;-144.05;47.48;56833.97;5033081;28;20032;-84
2023/07/08 00:44:12;;;;;;;3.65;2.50;;;19.30;99.90;;;-144.05;47.63;56836.09;5032585;28;20033;-83
2023/07/08 00:46:49;;;;;;;9.52;2.45;;;19.30;99.90;;;-144.05;47.97;56846.72;5032726;28;20029;-82
2023/07/08 00:49:57;;;;;;;5.63;2.60;;;19.20;99.90;;;-144.05;47.98;56833.97;5015434;28;20025;-81
2023/07/08 00:52:27;;;;;;;5.28;2.83;;;19.20;99.90;;;-144.05;48.02;56838.22;5032901;28;20033;-83
2023/07/08 00:55:06;;;;;;;5.53;2.65;;;19.10;99.90;;;-144.05;48.17;56819.09;5031551;28;20037;-82
2023/07/08 00:57:42;;;;;;;5.72;2.70;;;19.10;99.90;;;-144.05;48.13;56840.34;5032987;28;20028;-84
2023/07/08 01:00:15;;;;;;;6.07;2.92;;;19.10;99.90;;;-144.05;48.38;56838.22;5033196;28;20489;-82
2023/07/08 01:02:56;;;;;;;3.67;2.58;;;19.10;99.90;;;-144.05;48.36;56836.09;5014870;28;20033;-82
2023/07/08 01:05:28;;;;;;;5.53;2.97;;;19.00;99.90;;;-144.05;48.45;56842.47;5032755;28;20044;-81
2023/07/08 01:08:03;;;;;;;7.60;2.85;;;19.00;99.90;;;-144.05;48.58;56827.59;5032341;28;20117;-81
2023/07/08 01:10:50;;;;;;;5.35;3.30;;;19.00;99.90;;;-144.05;48.96;56821.22;5032314;28;20079;-81
2023/07/08 01:13:18;;;;;;;7.53;2.70;;;19.00;99.90;;;-144.05;48.78;56846.72;5032458;28;20784;-83
2023/07/08 01:15:48;;;;;;;4.50;2.42;;;18.90;99.90;;;-144.05;48.89;56829.72;5015421;28;20496;-81
2023/07/08 01:18:24;;;;;;;4.78;2.78;;;18.90;99.90;;;-144.05;48.92;56833.97;5039862;28;20429;-83
2023/07/08 01:20:50;;;;;;;5.45;2.90;;;18.80;99.90;;;-144.05;49.11;56838.22;5037435;28;20029;-81
2023/07/08 01:23:18;;;;;;;4.30;2.60;;;18.80;99.90;;;-144.05;49.18;56819.09;5033044;28;20048;-84
2023/07/08 01:25:46;;;;;;;3.25;2.42;;;18.80;99.90;;;-144.05;49.30;56823.34;5036003;28;20332;-83
2023/07/08 01:28:14;;;;;;;4.95;2.30;;;18.70;99.90;;;-144.05;49.55;56823.34;5052555;28;20124;-83
2023/07/08 01:30:46;;;;;;;5.00;2.60;;;18.60;99.90;;;-144.05;50.01;56810.59;5034657;28;20480;-83
2023/07/08 01:33:21;;;;;;;9.90;3.17;;;18.50;99.90;;;-144.05;50.27;56806.34;5052133;28;20083;-80
2023/07/08 01:35:51;;;;;;;4.22;2.75;;;18.40;99.90;;;-144.05;50.36;56823.34;5052546;28;20040;-83
2023/07/08 01:38:27;;;;;;;5.57;2.78;;;18.40;99.90;;;-144.05;50.68;56816.97;5052222;28;20415;-82
2023/07/08 01:40:58;;;;;;;4.70;3.17;;;18.30;99.90;;;-144.05;50.71;56838.22;5052259;28;20025;-84
2023/07/08 01:43:23;;;;;;;4.28;2.60;;;18.20;99.90;;;-144.05;50.92;56827.59;5052193;28;20570;-81
2023/07/08 01:45:52;;;;;;;4.82;2.60;;;18.20;99.90;;;-144.05;50.99;56819.09;5034179;28;20127;-82
2023/07/08 01:48:23;;;;;;;4.63;2.90;;;18.10;99.90;;;-144.05;51.01;56806.34;5033865;28;20056;-82
2023/07/08 01:51:01;;;;;;;5.30;2.70;;;18.10;99.90;;;-144.05;51.50;56833.97;5034329;28;20025;-82
2023/07/08 01:53:41;;;;;;;6.50;2.20;;;18.10;99.90;;;-144.05;51.33;56825.47;5033986;28;20025;-82
2023/07/08 01:56:08;;;;;;;5.50;2.70;;;18.10;99.90;;;-144.05;51.62;56816.97;5051872;28;20031;-83
2023/07/08 01:58:35;;;;;;;5.35;2.75;;;18.00;99.90;;;-144.05;52.07;56831.84;5053569;28;20029;-82
2023/07/08 02:01:01;;;;;;;6.43;2.65;;;17.90;99.90;;;-144.05;52.31;56836.09;5037604;28;20021;-82
2023/07/08 02:03:28;;;;;;;4.35;2.45;;;17.80;99.90;;;-144.05;52.96;56808.47;5056536;28;20029;-82
2023/07/08 02:05:54;;;;;;;8.55;3.15;;;17.70;99.90;;;-144.05;53.43;56812.72;5038270;28;20568;-84
2023/07/08 02:08:21;;;;;;;7.30;2.80;;;17.60;99.90;;;-144.05;53.70;56810.59;5055613;28;20029;-84
2023/07/08 02:10:57;;;;;;;4.90;2.70;;;17.50;99.90;;;-144.05;53.81;56823.34;5055536;28;20380;-83
2023/07/08 02:13:24;;;;;;;6.25;2.75;;;17.40;99.90;;;-144.05;54.10;56814.84;5055863;28;20024;-83
2023/07/08 02:15:51;;;;;;;5.97;2.80;;;17.30;99.90;;;-144.05;54.24;56816.97;5037875;28;20045;-81
2023/07/08 02:18:20;;;;;;;6.43;2.72;;;17.30;99.90;;;-144.05;54.55;56814.84;5055686;28;20060;-82
2023/07/08 02:20:47;;;;;;;5.25;2.97;;;17.30;99.90;;;-144.05;54.51;56806.34;5055799;28;20024;-82
2023/07/08 02:23:15;;;;;;;5.82;2.80;;;17.30;99.90;;;-144.05;54.57;56812.72;5055252;28;20052;-83
2023/07/08 02:25:41;;;;;;;3.88;2.67;;;17.30;99.90;;;-144.05;54.38;56829.72;5052242;28;20021;-80
2023/07/08 02:28:07;;;;;;;7.95;3.10;;;17.30;99.90;;;-144.05;54.55;56829.72;5034999;28;20026;-82
2023/07/08 02:30:33;;;;;;;8.60;3.15;;;17.30;99.90;;;-144.05;54.80;56823.34;5034969;28;20400;-80
2023/07/08 02:32:59;;;;;;;5.68;2.90;;;17.20;99.90;;;-144.05;54.51;56806.34;5035117;28;20389;-80
2023/07/08 02:35:33;;;;;;;4.63;2.63;;;17.30;99.90;;;-144.05;54.66;56825.47;5034916;28;20041;-83
2023/07/08 02:37:59;;;;;;;9.68;3.05;;;17.20;99.90;;;-144.05;54.89;56816.97;5064031;22;20072;-84
2023/07/08 02:40:26;;;;;;;3.67;2.58;;;17.20;99.90;;;-144.05;54.85;56799.97;5079633;28;20503;-86
2023/07/08 02:42:52;;;;;;;4.30;2.80;;;17.20;99.90;;;-144.05;55.17;56814.84;5079009;28;20031;-87
2023/07/08 02:45:19;;;;;;;4.47;2.58;;;17.10;99.90;;;-144.05;55.26;56823.34;5079677;28;20028;-85
2023/07/08 02:47:44;;;;;;;4.95;2.85;;;17.10;99.90;;;-144.05;55.69;56812.72;5080254;28;20035;-84
2023/07/08 02:50:12;;;;;;;6.10;2.70;;;17.10;99.90;;;-144.05;55.90;56827.59;5079983;28;20414;-82
2023/07/08 02:52:38;;;;;;;4.88;2.78;;;17.00;99.90;;;-144.05;55.94;56823.34;5079383;28;20039;-86
2023/07/08 02:55:05;;;;;;;5.57;3.40;;;17.00;99.90;;;-144.05;56.07;56802.09;5078019;28;20390;-84
2023/07/08 02:57:31;;;;;;;3.92;2.85;;;17.00;99.90;;;-144.05;56.15;56812.72;5078112;28;20116;-84
2023/07/08 02:59:57;;;;;;;5.75;3.20;;;17.00;99.90;;;-144.05;56.63;56814.84;5091912;28;20077;-84
2023/07/08 03:02:24;;;;;;;4.30;2.97;;;16.90;99.90;;;-144.05;56.81;56814.84;5095924;28;20034;-83
2023/07/08 03:04:50;;;;;;;4.25;2.55;;;16.90;99.90;;;-144.05;56.79;56842.47;5093949;28;20102;-82
2023/07/08 03:07:17;;;;;;;5.40;3.03;;;16.90;99.90;;;-144.05;56.79;56808.47;5090304;28;20060;-83
2023/07/08 03:09:43;;;;;;;5.40;2.70;;;16.90;99.90;;;-144.05;56.42;56831.84;5075903;28;20029;-84
2023/07/08 03:12:11;;;;;;;3.35;2.35;;;17.00;99.90;;;-144.05;56.01;56812.72;5075792;28;20043;-84
2023/07/08 03:14:38;;;;;;;7.55;3.55;;;17.00;99.90;;;-144.05;56.41;56795.75;5075731;28;20029;-84
2023/07/08 03:17:05;;;;;;;3.85;2.88;;;17.00;99.90;;;-144.05;56.42;56795.75;5075971;28;20124;-83
2023/07/08 03:19:32;;;;;;;4.63;2.50;;;16.90;99.90;;;-144.05;56.26;56797.88;5075614;28;20491;-84
2023/07/08 03:21:58;;;;;;;7.35;3.72;;;16.90;99.90;;;-144.05;56.45;56814.84;5073962;28;20494;-84
2023/07/08 03:24:24;;;;;;;5.70;3.25;;;16.90;99.90;;;-144.05;56.75;56810.59;5075955;28;20020;-84
2023/07/08 03:26:54;;;;;;;5.13;2.80;;;16.90;99.90;;;-144.05;56.88;56816.97;5074287;28;20065;-84
2023/07/08 03:29:21;;;;;;;9.27;3.30;;;16.80;99.90;;;-144.05;56.95;56808.47;5062058;28;20054;-85
2023/07/08 03:31:47;;;;;;;5.45;2.88;;;16.80;99.90;;;-144.05;57.24;56827.59;5062503;28;20033;-85
2023/07/08 03:34:17;;;;;;;5.90;2.95;;;16.80;99.90;;;-144.05;57.10;56797.88;5079331;28;20028;-86
2023/07/08 03:36:50;;;;;;;5.20;3.30;;;16.80;99.90;;;-144.05;56.92;56806.34;5062558;28;20024;-85
2023/07/08 03:39:20;;;;;;;5.38;2.88;;;16.80;99.90;;;-144.05;57.20;56804.22;5061894;28;20101;-84
2023/07/08 03:41:50;;;;;;;4.18;2.95;;;16.80;99.90;;;-144.05;57.39;56823.34;5062569;28;20103;-84
2023/07/08 03:44:17;;;;;;;5.25;2.90;;;16.80;99.90;;;-144.05;57.21;56804.22;5078966;28;20054;-86
2023/07/08 03:46:52;;;;;;;6.70;2.92;;;16.80;99.90;;;-144.05;57.36;56804.22;5061290;28;20505;-84
2023/07/08 03:49:23;;;;;;;4.47;2.63;;;16.80;99.90;;;-144.05;57.35;56797.88;5061325;28;20032;-85
2023/07/08 03:51:56;;;;;;;6.22;2.95;;;16.70;99.90;;;-144.05;56.96;56816.97;5061950;28;20036;-84
2023/07/08 03:54:25;;;;;;;6.47;3.20;;;16.70;99.90;;;-144.05;57.25;56829.72;5061237;28;20029;-85
2023/07/08 03:56:51;;;;;;;7.47;2.95;;;16.80;99.90;;;-144.05;57.05;56819.09;5061291;28;20483;-85
2023/07/08 03:59:18;;;;;;;5.82;3.20;;;16.70;99.90;;;-144.05;57.26;56785.13;5079425;28;20032;-85
2023/07/08 04:01:44;;;;;;;6.75;2.67;;;16.70;99.90;;;-144.05;57.39;56814.84;5061159;28;20040;-85
2023/07/08 04:04:15;;;;;;;6.93;3.22;;;16.70;99.90;;;-144.05;57.42;56819.09;5078121;28;20403;-85
2023/07/08 04:06:41;;;;;;;5.18;2.92;;;16.70;99.90;;;-144.05;57.17;56821.22;5078177;28;20196;-83
2023/07/08 04:09:07;;;;;;;5.40;3.25;;;16.70;99.90;;;-144.05;57.21;56825.47;5060723;28;20510;-84
2023/07/08 04:11:33;;;;;;;6.88;3.50;;;16.80;99.90;;;-144.05;57.13;56799.97;5060255;28;20170;-87
2023/07/08 04:13:59;;;;;;;3.90;3.03;;;16.80;99.90;;;-144.05;57.07;56814.84;5079214;28;20390;-83
2023/07/08 04:16:47;;;;;;;6.85;2.85;;;16.80;99.90;;;-144.05;57.30;56831.84;5078935;28;20033;-85
2023/07/08 04:19:15;;;;;;;6.38;3.17;;;16.90;99.90;;;-144.05;57.39;56804.22;5060802;28;20100;-85
2023/07/08 04:21:44;;;;;;;4.32;3.05;;;16.90;99.90;;;-144.05;57.16;56810.59;5076150;28;20025;-84
2023/07/08 04:24:13;;;;;;;9.13;2.85;;;16.90;99.90;;;-144.05;57.53;56814.84;5076979;28;20051;-81
2023/07/08 04:26:41;;;;;;;5.65;3.00;;;16.90;99.90;;;-144.05;57.70;56802.09;5065200;28;20492;-85
2023/07/08 04:29:13;;;;;;;6.90;3.10;;;16.90;99.90;;;-144.05;57.73;56814.84;5039656;28;20036;-83
2023/07/08 04:31:39;;;;;;;6.28;3.50;;;16.90;99.90;;;-144.05;57.81;56810.59;5039951;28;20048;-83
2023/07/08 04:34:06;;;;;;;4.82;2.80;;;16.90;99.90;;;-144.05;57.68;56797.88;5069045;28;20043;-81
2023/07/08 04:36:33;;;;;;;6.63;3.70;;;16.90;99.90;;;-144.05;57.20;56823.34;5061136;28;20067;-85
2023/07/08 04:38:59;;;;;;;7.80;2.95;;;17.00;99.90;;;-144.05;57.07;56797.88;5057242;28;20036;-83
2023/07/08 04:41:26;;;;;;;3.95;2.90;;;17.00;99.90;;;-144.05;56.90;56844.59;5039377;28;20028;-82
2023/07/08 04:43:53;;;;;;;6.82;2.60;;;17.10;99.90;;;-144.05;56.77;56814.84;5037893;28;20044;-83
2023/07/08 04:46:36;;;;;;;6.32;3.35;;;17.10;99.90;;;-144.05;57.00;56825.47;5056075;28;20036;-82
2023/07/08 04:49:09;;;;;;;4.60;3.10;;;17.10;99.90;;;-144.05;56.93;56804.22;5037495;28;20045;-83
2023/07/08 04:51:36;;;;;;;9.15;3.42;;;17.10;99.90;;;-144.05;56.67;56814.84;5037137;28;20066;-84
2023/07/08 04:54:03;;;;;;;7.13;3.17;;;17.20;99.90;;;-144.05;56.62;56827.59;5055808;28;20395;-84
2023/07/08 04:56:44;;;;;;;5.35;3.00;;;17.20;99.90;;;-144.05;56.29;56819.09;5037521;28;20064;-82
2023/07/08 04:59:15;;;;;;;7.28;3.58;;;17.20;99.90;;;-144.05;56.45;56814.84;5055368;28;20415;-82
2023/07/08 05:01:42;;;;;;;5.88;3.10;;;17.20;99.90;;;-144.05;56.41;56810.59;5054860;28;20448;-81
2023/07/08 05:04:13;;;;;;;6.78;3.03;;;17.30;99.90;;;-144.05;56.12;56804.22;5054143;28;20025;-84
2023/07/08 05:06:40;;;;;;;5.65;2.90;;;17.40;99.90;;;-144.05;55.55;56821.22;5037178;28;20036;-82
2023/07/08 05:09:06;;;;;;;10.13;3.70;;;17.50;99.90;;;-144.05;54.97;56808.47;5036967;28;20093;-82
2023/07/08 05:11:32;;;;;;;6.05;3.38;;;17.60;99.90;;;-144.05;54.18;56840.34;5054907;28;20425;-84
2023/07/08 05:13:58;;;;;;;6.70;3.20;;;17.80;99.90;;;-144.05;54.01;56797.88;5037129;28;20060;-84
2023/07/08 05:16:24;;;;;;;6.85;2.90;;;17.90;99.90;;;-144.05;53.49;56816.97;5054934;28;20383;-83
2023/07/08 05:18:50;;;;;;;7.57;2.92;;;18.00;99.90;;;-144.05;52.66;56823.34;5055348;28;20033;-83
2023/07/08 05:21:18;;;;;;;4.10;2.88;;;18.20;99.90;;;-144.05;52.16;56838.22;5054509;28;20039;-82
2023/07/08 05:23:46;;;;;;;5.88;2.70;;;18.40;99.90;;;-144.05;51.69;56844.59;5055358;28;20021;-83
2023/07/08 05:26:12;;;;;;;7.80;3.20;;;18.60;99.90;;;-144.05;50.81;56840.34;5056307;28;20476;-83
2023/07/08 05:28:38;;;;;;;7.55;3.15;;;18.70;99.90;;;-144.05;50.05;56823.34;5055815;28;20036;-84
2023/07/08 05:31:04;;;;;;;5.38;2.63;;;18.90;99.90;;;-144.05;50.00;56810.59;5037626;28;20091;-85
2023/07/08 05:33:31;;;;;;;5.22;2.65;;;18.90;99.90;;;-144.05;50.34;56827.59;5055106;28;20455;-84
2023/07/08 05:35:58;;;;;;;4.60;2.63;;;19.00;99.90;;;-144.05;50.04;56840.34;5041367;28;20017;-82
2023/07/08 05:38:25;;;;;;;4.05;2.28;;;19.20;99.90;;;-144.05;49.40;56827.59;5059198;28;20271;-83
2023/07/08 05:40:57;;;;;;;5.28;2.40;;;19.50;99.90;;;-144.05;48.37;56838.22;5040423;28;20436;-83
2023/07/08 05:43:24;;;;;;;4.55;2.90;;;19.80;99.90;;;-144.05;47.24;56844.59;5057314;28;20086;-83
2023/07/08 05:45:51;;;;;;;7.05;3.10;;;20.00;99.90;;;-144.05;47.37;56874.31;5037771;28;20460;-82
2023/07/08 05:48:18;;;;;;;8.82;3.00;;;20.30;99.90;;;-144.05;45.68;56846.72;5056335;28;20033;-80
2023/07/08 05:50:46;;;;;;;3.92;2.95;;;20.40;99.90;;;-144.05;45.60;56844.59;5041969;28;20056;-85
2023/07/08 05:53:13;;;;;;;5.32;2.10;;;20.50;99.90;;;-144.05;45.34;56846.72;5040425;28;20048;-84
2023/07/08 05:55:42;;;;;;;3.83;2.72;;;20.70;99.90;;;-144.05;44.73;56848.84;5058858;28;20126;-82
2023/07/08 05:58:08;;;;;;;7.35;2.80;;;21.00;99.90;;;-144.05;44.14;56874.31;5056677;28;20036;-81
2023/07/08 06:00:34;;;;;;;3.90;2.60;;;21.20;99.90;;;-144.05;43.51;56874.31;5060781;28;20029;-80
2023/07/08 06:03:00;;;;;;;4.78;2.80;;;21.50;99.90;;;-144.05;42.88;56859.47;5042179;28;20036;-79
2023/07/08 06:05:26;;;;;;;5.70;2.70;;;21.70;99.90;;;-144.05;42.27;56865.81;5053521;28;20428;-80
2023/07/08 06:07:52;;;;;;;4.28;3.10;;;22.00;99.90;;;-144.05;42.28;56874.31;5054515;28;20037;-80
2023/07/08 06:10:17;;;;;;;3.88;2.60;;;22.10;99.90;;;-144.05;42.29;56887.06;5054609;28;20429;-79
2023/07/08 06:12:43;;;;;;;4.93;2.50;;;22.40;99.90;;;-144.05;42.12;56872.19;5036164;28;20064;-80
2023/07/08 06:15:12;;;;;;;5.07;2.60;;;22.70;99.90;;;-144.05;41.41;56891.31;5053706;28;20037;-78
2023/07/08 06:17:37;;;;;;;8.30;3.17;;;22.90;99.90;;;-144.05;40.28;56895.56;5052714;28;20021;-81
2023/07/08 06:20:04;;;;;;;7.22;2.95;;;23.10;99.90;;;-144.05;40.06;56887.06;5053997;28;20143;-80
2023/07/08 06:22:30;;;;;;;6.30;2.60;;;23.10;99.90;;;-144.05;39.96;56897.69;5036328;28;20119;-81
2023/07/08 06:24:56;;;;;;;2.35;2.10;;;23.20;99.90;;;-144.05;39.83;56908.31;5053732;28;20174;-80
2023/07/08 06:27:21;;;;;;;6.30;2.78;;;23.20;99.90;;;-144.05;39.67;56921.06;5052339;28;20487;-80
2023/07/08 06:29:47;;;;;;;4.57;2.45;;;23.30;99.90;;;-144.05;40.25;56921.06;5072884;28;20035;-80
2023/07/08 06:32:13;;;;;;;5.75;2.67;;;23.50;99.90;;;-144.05;39.70;56921.06;5073503;28;20028;-77
2023/07/08 06:34:39;;;;;;;4.70;2.40;;;23.70;99.90;;;-144.05;39.12;56923.19;5072864;28;20048;-80
2023/07/08 06:37:05;;;;;;;6.00;2.72;;;23.90;99.90;;;-144.05;38.51;56912.56;5073866;28;20481;-82
2023/07/08 06:39:31;;;;;;;4.85;2.88;;;24.20;99.90;;;-144.05;38.07;56952.91;5071132;28;20028;-81
2023/07/08 06:41:57;;;;;;;5.30;2.70;;;24.00;99.90;;;-144.05;37.61;56923.19;5073105;28;20020;-79
2023/07/08 06:44:23;;;;;;;5.60;3.03;;;24.10;99.90;;;-144.05;37.89;56918.94;5075129;28;20095;-81
2023/07/08 06:46:49;;;;;;;5.78;2.80;;;24.10;99.90;;;-144.05;38.18;56942.28;5058810;28;20052;-79
2023/07/08 06:49:15;;;;;;;4.72;2.90;;;24.50;99.90;;;-144.05;37.44;56946.53;5076657;28;20033;-79
2023/07/08 06:51:42;;;;;;;5.72;2.55;;;24.70;99.90;;;-144.05;37.60;56952.91;5076226;28;20101;-81
2023/07/08 06:54:11;;;;;;;5.00;2.60;;;25.10;99.90;;;-144.05;37.23;56972.03;5076292;28;20027;-81
2023/07/08 06:56:41;;;;;;;4.95;2.80;;;25.20;99.90;;;-144.05;36.61;56961.41;5076878;28;20500;-81
2023/07/08 06:59:08;;;;;;;4.00;2.97;;;25.50;99.90;;;-144.05;37.21;56942.28;5076069;28;20154;-79
2023/07/08 07:01:36;;;;;;;6.15;3.10;;;25.70;99.90;;;-144.05;36.51;56974.16;5058297;28;20428;-79
2023/07/08 07:04:03;;;;;;;4.45;2.60;;;25.60;99.90;;;-144.05;36.38;56978.41;5058236;28;20028;-80
2023/07/08 07:06:29;;;;;;;5.38;2.80;;;25.70;99.90;;;-144.05;36.30;56989.00;5076132;28;20047;-79
2023/07/08 07:08:55;;;;;;;5.95;3.42;;;26.10;99.90;;;-144.05;35.51;57006.00;5076804;28;20487;-80
2023/07/08 07:11:21;;;;;;;2.90;2.45;;;26.30;99.90;;;-144.05;35.32;56989.00;5059234;28;20029;-79
2023/07/08 07:13:47;;;;;;;5.05;3.00;;;26.50;99.90;;;-144.05;35.23;57014.50;5076570;28;20036;-78
2023/07/08 07:16:13;;;;;;;4.25;2.88;;;26.60;99.90;;;-144.05;35.24;57010.25;5076447;28;20024;-79
2023/07/08 07:18:39;;;;;;;4.88;2.95;;;26.60;99.90;;;-144.05;35.34;57006.00;5058850;28;20040;-78
2023/07/08 07:21:05;;;;;;;6.25;2.65;;;26.70;99.70;;;-144.05;35.35;57027.25;5076484;28;20102;-79
2023/07/08 07:23:31;;;;;;;5.18;2.60;;;27.00;99.80;;;-144.05;35.24;57023.00;5065026;28;20466;-80
2023/07/08 07:25:57;;;;;;;5.90;2.40;;;27.20;99.70;;;-144.05;34.86;57025.13;5072097;28;20112;-81
2023/07/08 07:28:23;;;;;;;6.45;2.67;;;27.40;99.30;;;-144.05;34.20;57042.13;5040643;28;20028;-82
2023/07/08 07:30:58;;;;;;;7.45;3.47;;;27.70;97.10;;;-144.05;34.25;57071.84;5055643;28;20034;-82
2023/07/08 07:33:26;;;;;;;6.60;3.28;;;27.70;96.80;;;-144.05;33.65;57035.75;5055169;28;20113;-82
2023/07/08 07:35:52;;;;;;;4.55;2.75;;;28.00;96.10;;;-144.05;33.68;57063.34;5059204;28;20037;-82
2023/07/08 07:38:18;;;;;;;7.57;2.72;;;28.10;95.50;;;-144.05;33.35;57076.09;5037260;28;20036;-81
2023/07/08 07:40:45;;;;;;;4.28;2.95;;;28.10;96.10;;;-144.05;33.13;57082.47;5055912;28;20149;-79
2023/07/08 07:43:11;;;;;;;5.60;2.85;;;28.30;95.60;;;-144.05;32.79;57080.34;5056071;28;20056;-82
2023/07/08 07:45:37;;;;;;;6.03;3.30;;;28.50;95.00;;;-144.05;32.83;57107.97;5038002;28;20029;-82
2023/07/08 07:48:04;;;;;;;7.95;2.85;;;28.40;94.60;;;-144.05;32.92;57088.84;5056082;28;20025;-84
2023/07/08 07:50:31;;;;;;;5.10;2.92;;;28.60;94.70;;;-144.05;32.71;57129.22;5038067;28;20459;-82
2023/07/08 07:52:57;;;;;;;5.85;3.10;;;28.90;94.40;;;-144.05;32.73;57124.97;5056617;28;20024;-84
2023/07/08 07:55:23;;;;;;;6.20;3.33;;;29.10;94.50;;;-144.05;32.28;57146.19;5057417;28;20040;-85
2023/07/08 07:57:49;;;;;;;5.18;3.53;;;29.10;93.60;;;-144.05;32.22;57156.81;5057368;28;20021;-84
2023/07/08 08:00:15;;;;;;;3.55;2.83;;;29.30;92.90;;;-144.05;32.01;57144.06;5040401;28;20029;-84
2023/07/08 08:02:42;;;;;;;7.25;3.47;;;29.50;92.60;;;-144.05;32.35;57144.06;5058550;28;20043;-83
2023/07/08 08:05:08;;;;;;;4.97;3.30;;;29.70;92.70;;;-144.05;31.96;57146.19;5058194;28;20033;-85
2023/07/08 08:07:36;;;;;;;5.07;3.42;;;29.70;91.90;;;-144.05;32.07;57146.19;5058639;28;20059;-86
2023/07/08 08:10:03;;;;;;;6.22;3.70;;;29.90;92.50;;;-144.05;31.48;57180.19;5060043;28;20549;-84
2023/07/08 08:12:29;;;;;;;4.38;2.83;;;30.20;91.40;;;-144.05;31.44;57207.78;5047234;28;20094;-83
2023/07/08 08:14:55;;;;;;;4.57;3.40;;;30.60;91.20;;;-144.05;31.10;57233.28;5040327;28;20029;-83
2023/07/08 08:17:21;;;;;;;4.85;3.28;;;30.90;90.20;;;-144.05;30.65;57203.56;5060844;28;20040;-82
2023/07/08 08:19:47;;;;;;;5.15;3.08;;;30.80;88.10;;;-144.05;29.97;57224.78;5062853;28;20029;-84
2023/07/08 08:22:13;;;;;;;4.28;3.35;;;30.90;86.50;;;-144.05;30.51;57212.03;5040538;28;20048;-84
2023/07/08 08:24:39;;;;;;;5.85;3.53;;;30.90;86.40;;;-144.05;30.26;57214.16;5041958;28;20028;-82
2023/07/08 08:27:06;;;;;;;7.93;3.80;;;30.80;85.70;;;-144.05;29.79;57250.28;5074089;28;20435;-86
2023/07/08 08:29:32;;;;;;;4.53;3.40;;;31.00;84.50;;;-144.05;30.24;57235.41;5062739;28;20028;-84
2023/07/08 08:31:58;;;;;;;5.93;3.70;;;31.10;87.40;;;-144.05;30.25;57239.66;5062507;28;20036;-83
2023/07/08 08:34:24;;;;;;;5.13;3.72;;;31.40;84.70;;;-144.05;29.96;57218.41;5061352;28;20040;-85
2023/07/08 08:36:50;;;;;;;8.23;4.18;;;31.20;82.20;;;-144.05;28.92;57260.91;5080266;28;20035;-81
2023/07/08 08:39:16;;;;;;;5.72;4.00;;;31.50;78.90;;;-144.05;29.32;57282.16;5081000;22;20392;-75
2023/07/08 08:41:43;;;;;;;8.52;4.00;;;31.80;81.10;;;-144.05;29.20;57280.03;5074063;28;20043;-76
2023/07/08 08:44:28;;;;;;;7.05;3.50;;;31.90;79.40;;;-144.05;29.12;57294.88;5073944;28;20043;-78
2023/07/08 08:47:43;;;;;;;8.10;4.68;;;32.30;77.60;;;-144.05;26.03;57303.38;5073993;28;20090;-77
2023/07/08 08:50:50;;;;;;;10.60;4.55;;;32.50;66.60;;;-144.05;25.98;57320.38;5011881;28;20037;-80
2023/07/08 08:53:21;;;;;;;5.78;3.67;;;32.70;66.00;;;-144.05;27.49;57350.13;5053905;28;20033;-79
2023/07/08 08:56:18;;;;;;;9.57;4.95;;;32.80;71.50;;;-144.05;26.00;57350.13;5054194;28;20025;-77
2023/07/08 08:59:17;;;;;;;8.45;4.70;;;33.00;62.80;;;-144.05;25.55;57362.88;5054402;28;20028;-77
2023/07/08 09:01:47;;;;;;;6.47;4.68;;;33.10;62.40;;;-144.05;25.50;57343.75;5073583;28;20024;-77
2023/07/08 09:04:27;;;;;;;7.95;5.03;;;33.00;60.70;;;-144.05;25.32;57348.00;5073212;28;20048;-78
2023/07/08 09:07:11;;;;;;;6.45;4.82;;;33.00;59.90;;;-144.05;25.45;57356.50;5055548;28;20108;-78
2023/07/08 09:10:20;;;;;;;7.80;4.78;;;33.50;60.80;;;-144.05;24.67;57384.09;5038078;28;20033;-81
2023/07/08 09:12:51;;;;;;;7.13;4.75;;;33.50;59.30;;;-144.05;25.18;57384.09;5015151;28;20075;-79
2023/07/08 09:15:17;;;;;;;7.82;4.75;;;33.70;58.60;;;-144.05;25.25;57401.09;5053447;28;20036;-78
2023/07/08 09:17:44;;;;;;;8.57;5.28;;;33.80;58.40;;;-144.05;24.67;57377.72;5051992;28;20036;-75
2023/07/08 09:20:28;;;;;;;8.32;5.07;;;33.60;56.20;;;-144.05;24.46;57384.09;5053703;28;20131;-79
2023/07/08 09:23:26;;;;;;;6.45;4.95;;;33.90;56.30;;;-144.05;24.17;57460.59;5053823;28;20430;-80
2023/07/08 09:26:18;;;;;;;7.47;5.10;;;34.10;56.40;;;-144.05;24.08;57454.22;5059421;28;20024;-78
2023/07/08 09:28:46;;;;;;;6.93;5.15;;;34.30;55.00;;;-144.05;23.83;57486.06;5074892;28;20055;-79
2023/07/08 09:31:32;;;;;;;7.07;5.20;;;34.60;54.80;;;-144.05;23.54;57494.56;5074433;28;20036;-80
2023/07/08 09:34:35;;;;;;;6.82;4.78;;;34.70;54.90;;;-144.05;23.92;57496.69;5073396;28;20028;-78
2023/07/08 09:37:01;;;;;;;10.30;5.07;;;34.90;54.70;;;-144.05;23.55;57509.44;5073865;28;20032;-80
2023/07/08 09:39:30;;;;;;;7.25;4.95;;;35.10;53.30;;;-144.05;23.53;57537.06;5072245;28;20028;-80
2023/07/08 09:41:56;;;;;;;6.25;5.05;;;35.00;53.70;;;-144.05;23.76;57524.31;5074435;28;20439;-79
2023/07/08 09:44:33;;;;;;;6.75;4.72;;;35.00;53.80;;;-144.05;23.59;57483.94;5073954;28;20108;-80
2023/07/08 09:46:59;;;;;;;10.15;6.25;;;35.00;53.50;;;-144.05;23.57;57471.19;5074267;28;20028;-78
2023/07/08 09:49:35;;;;;;;6.88;4.95;;;34.90;52.40;;;-144.05;23.60;57488.19;5073602;28;20033;-80
2023/07/08 09:52:04;;;;;;;6.97;4.95;;;34.80;52.80;;;-144.05;23.74;57486.06;5073180;28;20329;-79
2023/07/08 09:54:32;;;;;;;7.93;5.47;;;34.90;52.60;;;-144.05;23.25;57511.56;5055386;28;20162;-77
2023/07/08 09:57:11;;;;;;;8.75;5.40;;;35.10;52.80;;;-144.05;24.56;57498.81;5073164;28;20023;-78
2023/07/08 09:59:52;;;;;;;7.43;4.80;;;34.90;54.30;;;-144.05;23.82;57496.69;5073594;28;20028;-78
2023/07/08 10:02:58;;;;;;;8.88;5.43;;;34.90;52.80;;;-144.05;23.98;57462.69;5073998;28;20020;-79
2023/07/08 10:05:35;;;;;;;8.60;5.28;;;34.90;53.50;;;-144.05;23.76;57435.09;5071780;28;20039;-81
2023/07/08 10:08:13;;;;;;;7.93;4.82;;;34.50;51.40;;;-144.05;23.91;57430.84;5073090;28;20545;-77
2023/07/08 10:10:41;;;;;;;6.75;4.85;;;34.40;52.40;;;-144.05;23.79;57407.47;5072726;28;20032;-78
2023/07/08 10:13:26;;;;;;;7.13;4.30;;;34.30;51.40;;;-144.05;23.57;57343.75;5073371;28;20056;-79
2023/07/08 10:16:13;;;;;;;8.32;5.32;;;34.00;51.30;;;-144.05;24.61;57328.88;5072065;28;20029;-76
2023/07/08 10:18:40;;;;;;;5.97;4.55;;;33.40;52.50;;;-144.05;23.78;57362.88;5073095;28;20029;-82